sensor_id;sensor_type;location;lat;lon;timestamp;P1;durP1;ratioP1;P2;durP2;ratioP2
22064;SDS011;11197;53.110;8.468;2023-05-07T00:00:37;17.83;;;13.73;;
22064;SDS011;11197;53.110;8.468;2023-05-07T00:03:03;21.17;;;15.38;;
22064;SDS011;11197;53.110;8.468;2023-05-07T00:05:29;22.27;;;14.70;;
22064;SDS011;11197;53.110;8.468;2023-05-07T00:07:58;21.45;;;14.68;;
22064;SDS011;11197;53.110;8.468;2023-05-07T00:10:24;20.35;;;14.30;;
22064;SDS011;11197;53.110;8.468;2023-05-07T00:12:50;19.38;;;14.10;;
22064;SDS011;11197;53.110;8.468;2023-05-07T00:15:16;20.02;;;14.63;;
22064;SDS011;11197;53.110;8.468;2023-05-07T00:17:42;19.70;;;14.88;;
22064;SDS011;11197;53.110;8.468;2023-05-07T00:20:08;16.85;;;13.93;;
22064;SDS011;11197;53.110;8.468;2023-05-07T00:22:34;20.45;;;14.65;;
22064;SDS011;11197;53.110;8.468;2023-05-07T00:25:00;19.67;;;14.55;;
22064;SDS011;11197;53.110;8.468;2023-05-07T00:27:26;18.98;;;14.55;;
22064;SDS011;11197;53.110;8.468;2023-05-07T00:29:52;18.35;;;13.85;;
22064;SDS011;11197;53.110;8.468;2023-05-07T00:32:18;17.42;;;13.43;;
22064;SDS011;11197;53.110;8.468;2023-05-07T00:34:44;19.75;;;14.00;;
22064;SDS011;11197;53.110;8.468;2023-05-07T00:37:09;18.30;;;13.75;;
22064;SDS011;11197;53.110;8.468;2023-05-07T00:39:37;19.33;;;14.07;;
22064;SDS011;11197;53.110;8.468;2023-05-07T00:42:02;19.23;;;15.05;;
22064;SDS011;11197;53.110;8.468;2023-05-07T00:44:29;18.25;;;14.02;;
22064;SDS011;11197;53.110;8.468;2023-05-07T00:46:55;18.98;;;14.10;;
22064;SDS011;11197;53.110;8.468;2023-05-07T00:49:27;19.13;;;14.00;;
22064;SDS011;11197;53.110;8.468;2023-05-07T00:52:11;17.83;;;13.73;;
22064;SDS011;11197;53.110;8.468;2023-05-07T00:54:38;18.95;;;14.65;;
22064;SDS011;11197;53.110;8.468;2023-05-07T00:57:06;19.58;;;14.93;;
22064;SDS011;11197;53.110;8.468;2023-05-07T00:59:34;19.63;;;14.07;;
22064;SDS011;11197;53.110;8.468;2023-05-07T01:02:00;18.90;;;14.52;;
22064;SDS011;11197;53.110;8.468;2023-05-07T01:04:26;19.90;;;14.65;;
22064;SDS011;11197;53.110;8.468;2023-05-07T01:06:53;16.98;;;13.52;;
22064;SDS011;11197;53.110;8.468;2023-05-07T01:09:21;18.15;;;14.27;;
22064;SDS011;11197;53.110;8.468;2023-05-07T01:11:49;17.88;;;13.57;;
22064;SDS011;11197;53.110;8.468;2023-05-07T01:14:17;17.20;;;12.93;;
22064;SDS011;11197;53.110;8.468;2023-05-07T01:16:43;18.67;;;13.70;;
22064;SDS011;11197;53.110;8.468;2023-05-07T01:19:09;17.33;;;14.02;;
22064;SDS011;11197;53.110;8.468;2023-05-07T01:21:39;17.52;;;14.27;;
22064;SDS011;11197;53.110;8.468;2023-05-07T01:24:12;16.98;;;14.15;;
22064;SDS011;11197;53.110;8.468;2023-05-07T01:26:38;17.90;;;14.38;;
22064;SDS011;11197;53.110;8.468;2023-05-07T01:29:05;17.90;;;13.98;;
22064;SDS011;11197;53.110;8.468;2023-05-07T01:31:32;17.63;;;14.02;;
22064;SDS011;11197;53.110;8.468;2023-05-07T01:34:00;19.70;;;14.82;;
22064;SDS011;11197;53.110;8.468;2023-05-07T01:36:29;18.30;;;14.68;;
22064;SDS011;11197;53.110;8.468;2023-05-07T01:38:55;18.75;;;14.75;;
22064;SDS011;11197;53.110;8.468;2023-05-07T01:41:23;16.83;;;13.98;;
22064;SDS011;11197;53.110;8.468;2023-05-07T01:43:50;17.38;;;14.40;;
22064;SDS011;11197;53.110;8.468;2023-05-07T01:46:17;20.20;;;14.35;;
22064;SDS011;11197;53.110;8.468;2023-05-07T01:48:44;19.73;;;14.98;;
22064;SDS011;11197;53.110;8.468;2023-05-07T01:51:11;27.63;;;14.48;;
22064;SDS011;11197;53.110;8.468;2023-05-07T01:53:38;19.40;;;15.45;;
22064;SDS011;11197;53.110;8.468;2023-05-07T01:56:05;18.20;;;14.55;;
22064;SDS011;11197;53.110;8.468;2023-05-07T01:58:33;19.83;;;15.60;;
22064;SDS011;11197;53.110;8.468;2023-05-07T02:01:00;18.58;;;15.63;;
22064;SDS011;11197;53.110;8.468;2023-05-07T02:03:26;19.30;;;15.35;;
22064;SDS011;11197;53.110;8.468;2023-05-07T02:06:01;21.25;;;15.43;;
22064;SDS011;11197;53.110;8.468;2023-05-07T02:08:31;20.42;;;14.65;;
22064;SDS011;11197;53.110;8.468;2023-05-07T02:10:58;18.13;;;14.25;;
22064;SDS011;11197;53.110;8.468;2023-05-07T02:13:25;17.75;;;14.35;;
22064;SDS011;11197;53.110;8.468;2023-05-07T02:15:52;19.90;;;15.50;;
22064;SDS011;11197;53.110;8.468;2023-05-07T02:18:19;21.05;;;15.52;;
22064;SDS011;11197;53.110;8.468;2023-05-07T02:20:45;19.02;;;15.10;;
22064;SDS011;11197;53.110;8.468;2023-05-07T02:23:11;19.35;;;15.18;;
22064;SDS011;11197;53.110;8.468;2023-05-07T02:25:37;20.73;;;15.02;;
22064;SDS011;11197;53.110;8.468;2023-05-07T02:28:03;19.88;;;15.00;;
22064;SDS011;11197;53.110;8.468;2023-05-07T02:30:48;19.67;;;14.85;;
22064;SDS011;11197;53.110;8.468;2023-05-07T02:33:14;17.70;;;13.77;;
22064;SDS011;11197;53.110;8.468;2023-05-07T02:35:41;20.10;;;14.35;;
22064;SDS011;11197;53.110;8.468;2023-05-07T02:38:07;19.15;;;14.73;;
22064;SDS011;11197;53.110;8.468;2023-05-07T02:40:36;19.02;;;14.25;;
22064;SDS011;11197;53.110;8.468;2023-05-07T02:43:05;18.20;;;14.10;;
22064;SDS011;11197;53.110;8.468;2023-05-07T02:45:32;20.67;;;14.63;;
22064;SDS011;11197;53.110;8.468;2023-05-07T02:47:59;17.85;;;13.70;;
22064;SDS011;11197;53.110;8.468;2023-05-07T02:50:25;20.50;;;14.85;;
22064;SDS011;11197;53.110;8.468;2023-05-07T02:52:58;19.02;;;14.55;;
22064;SDS011;11197;53.110;8.468;2023-05-07T02:55:24;19.95;;;14.23;;
22064;SDS011;11197;53.110;8.468;2023-05-07T02:57:50;19.77;;;13.93;;
22064;SDS011;11197;53.110;8.468;2023-05-07T03:00:17;17.88;;;13.60;;
22064;SDS011;11197;53.110;8.468;2023-05-07T03:03:19;20.60;;;14.18;;
22064;SDS011;11197;53.110;8.468;2023-05-07T03:05:45;18.52;;;13.70;;
22064;SDS011;11197;53.110;8.468;2023-05-07T03:08:11;17.70;;;13.18;;
22064;SDS011;11197;53.110;8.468;2023-05-07T03:10:37;19.40;;;13.75;;
22064;SDS011;11197;53.110;8.468;2023-05-07T03:13:03;19.48;;;13.20;;
22064;SDS011;11197;53.110;8.468;2023-05-07T03:15:29;17.83;;;13.60;;
22064;SDS011;11197;53.110;8.468;2023-05-07T03:17:55;19.58;;;13.43;;
22064;SDS011;11197;53.110;8.468;2023-05-07T03:20:21;17.63;;;13.13;;
22064;SDS011;11197;53.110;8.468;2023-05-07T03:22:47;16.98;;;12.80;;
22064;SDS011;11197;53.110;8.468;2023-05-07T03:25:13;18.83;;;13.35;;
22064;SDS011;11197;53.110;8.468;2023-05-07T03:27:40;18.27;;;13.05;;
22064;SDS011;11197;53.110;8.468;2023-05-07T03:30:07;18.13;;;13.07;;
22064;SDS011;11197;53.110;8.468;2023-05-07T03:32:34;15.38;;;12.05;;
22064;SDS011;11197;53.110;8.468;2023-05-07T03:35:05;18.85;;;13.52;;
22064;SDS011;11197;53.110;8.468;2023-05-07T03:37:31;18.27;;;13.60;;
22064;SDS011;11197;53.110;8.468;2023-05-07T03:39:57;19.77;;;13.32;;
22064;SDS011;11197;53.110;8.468;2023-05-07T03:42:23;19.98;;;12.93;;
22064;SDS011;11197;53.110;8.468;2023-05-07T03:44:51;16.20;;;11.80;;
22064;SDS011;11197;53.110;8.468;2023-05-07T03:47:17;17.95;;;12.82;;
22064;SDS011;11197;53.110;8.468;2023-05-07T03:49:44;17.65;;;13.25;;
22064;SDS011;11197;53.110;8.468;2023-05-07T03:52:11;18.58;;;12.55;;
22064;SDS011;11197;53.110;8.468;2023-05-07T03:54:37;16.30;;;12.30;;
22064;SDS011;11197;53.110;8.468;2023-05-07T03:57:03;19.17;;;13.02;;
22064;SDS011;11197;53.110;8.468;2023-05-07T03:59:29;18.40;;;12.57;;
22064;SDS011;11197;53.110;8.468;2023-05-07T04:01:58;17.00;;;12.57;;
22064;SDS011;11197;53.110;8.468;2023-05-07T04:04:29;16.48;;;12.48;;
22064;SDS011;11197;53.110;8.468;2023-05-07T04:06:59;17.85;;;12.20;;
22064;SDS011;11197;53.110;8.468;2023-05-07T04:09:26;17.38;;;12.63;;
22064;SDS011;11197;53.110;8.468;2023-05-07T04:11:53;17.70;;;12.38;;
22064;SDS011;11197;53.110;8.468;2023-05-07T04:14:18;19.25;;;12.80;;
22064;SDS011;11197;53.110;8.468;2023-05-07T04:16:44;16.65;;;11.90;;
22064;SDS011;11197;53.110;8.468;2023-05-07T04:19:10;18.50;;;12.48;;
22064;SDS011;11197;53.110;8.468;2023-05-07T04:21:37;17.20;;;12.32;;
22064;SDS011;11197;53.110;8.468;2023-05-07T04:24:03;18.10;;;12.73;;
22064;SDS011;11197;53.110;8.468;2023-05-07T04:26:29;17.52;;;12.05;;
22064;SDS011;11197;53.110;8.468;2023-05-07T04:28:55;19.15;;;12.32;;
22064;SDS011;11197;53.110;8.468;2023-05-07T04:31:23;16.58;;;12.00;;
22064;SDS011;11197;53.110;8.468;2023-05-07T04:33:53;16.80;;;12.02;;
22064;SDS011;11197;53.110;8.468;2023-05-07T04:36:19;15.27;;;11.63;;
22064;SDS011;11197;53.110;8.468;2023-05-07T04:38:51;16.65;;;12.15;;
22064;SDS011;11197;53.110;8.468;2023-05-07T04:41:18;16.85;;;11.90;;
22064;SDS011;11197;53.110;8.468;2023-05-07T04:43:44;15.10;;;11.18;;
22064;SDS011;11197;53.110;8.468;2023-05-07T04:46:12;17.85;;;12.75;;
22064;SDS011;11197;53.110;8.468;2023-05-07T04:48:39;16.67;;;11.63;;
22064;SDS011;11197;53.110;8.468;2023-05-07T04:51:07;17.80;;;12.40;;
22064;SDS011;11197;53.110;8.468;2023-05-07T04:53:33;16.85;;;12.32;;
22064;SDS011;11197;53.110;8.468;2023-05-07T04:55:59;18.15;;;13.27;;
22064;SDS011;11197;53.110;8.468;2023-05-07T04:58:31;17.30;;;12.68;;
22064;SDS011;11197;53.110;8.468;2023-05-07T05:00:57;18.80;;;12.85;;
22064;SDS011;11197;53.110;8.468;2023-05-07T05:03:24;19.27;;;13.25;;
22064;SDS011;11197;53.110;8.468;2023-05-07T05:05:50;17.67;;;12.35;;
22064;SDS011;11197;53.110;8.468;2023-05-07T05:08:17;17.45;;;13.40;;
22064;SDS011;11197;53.110;8.468;2023-05-07T05:10:43;20.02;;;14.00;;
22064;SDS011;11197;53.110;8.468;2023-05-07T05:13:10;18.10;;;13.50;;
22064;SDS011;11197;53.110;8.468;2023-05-07T05:15:38;18.35;;;12.95;;
22064;SDS011;11197;53.110;8.468;2023-05-07T05:18:04;16.77;;;12.40;;
22064;SDS011;11197;53.110;8.468;2023-05-07T05:20:31;17.25;;;12.77;;
22064;SDS011;11197;53.110;8.468;2023-05-07T05:22:57;18.98;;;13.38;;
22064;SDS011;11197;53.110;8.468;2023-05-07T05:25:23;16.48;;;12.10;;
22064;SDS011;11197;53.110;8.468;2023-05-07T05:27:49;15.63;;;11.82;;
22064;SDS011;11197;53.110;8.468;2023-05-07T05:30:15;23.02;;;14.52;;
22064;SDS011;11197;53.110;8.468;2023-05-07T05:32:44;16.42;;;12.65;;
22064;SDS011;11197;53.110;8.468;2023-05-07T05:35:10;17.23;;;12.23;;
22064;SDS011;11197;53.110;8.468;2023-05-07T05:37:36;18.08;;;12.73;;
22064;SDS011;11197;53.110;8.468;2023-05-07T05:40:04;19.48;;;13.13;;
22064;SDS011;11197;53.110;8.468;2023-05-07T05:42:31;16.45;;;12.05;;
22064;SDS011;11197;53.110;8.468;2023-05-07T05:44:57;17.05;;;12.07;;
22064;SDS011;11197;53.110;8.468;2023-05-07T05:47:23;16.70;;;11.30;;
22064;SDS011;11197;53.110;8.468;2023-05-07T05:49:52;19.25;;;11.88;;
22064;SDS011;11197;53.110;8.468;2023-05-07T05:52:19;16.83;;;11.95;;
22064;SDS011;11197;53.110;8.468;2023-05-07T05:54:45;17.30;;;11.57;;
22064;SDS011;11197;53.110;8.468;2023-05-07T05:57:11;16.25;;;11.73;;
22064;SDS011;11197;53.110;8.468;2023-05-07T05:59:37;17.55;;;12.77;;
22064;SDS011;11197;53.110;8.468;2023-05-07T06:02:03;15.90;;;12.32;;
22064;SDS011;11197;53.110;8.468;2023-05-07T06:04:29;16.65;;;11.80;;
22064;SDS011;11197;53.110;8.468;2023-05-07T06:06:56;15.55;;;11.35;;
22064;SDS011;11197;53.110;8.468;2023-05-07T06:09:23;15.73;;;11.55;;
22064;SDS011;11197;53.110;8.468;2023-05-07T06:11:50;16.73;;;11.55;;
22064;SDS011;11197;53.110;8.468;2023-05-07T06:14:17;14.70;;;11.35;;
22064;SDS011;11197;53.110;8.468;2023-05-07T06:16:43;15.73;;;11.52;;
22064;SDS011;11197;53.110;8.468;2023-05-07T06:19:09;14.57;;;11.40;;
22064;SDS011;11197;53.110;8.468;2023-05-07T06:21:36;15.15;;;11.10;;
22064;SDS011;11197;53.110;8.468;2023-05-07T06:24:02;12.90;;;10.02;;
22064;SDS011;11197;53.110;8.468;2023-05-07T06:26:28;14.00;;;10.65;;
22064;SDS011;11197;53.110;8.468;2023-05-07T06:28:54;14.70;;;10.30;;
22064;SDS011;11197;53.110;8.468;2023-05-07T06:31:20;13.80;;;10.70;;
22064;SDS011;11197;53.110;8.468;2023-05-07T06:33:57;12.70;;;9.88;;
22064;SDS011;11197;53.110;8.468;2023-05-07T06:36:30;13.25;;;9.57;;
22064;SDS011;11197;53.110;8.468;2023-05-07T06:38:58;14.10;;;9.80;;
22064;SDS011;11197;53.110;8.468;2023-05-07T06:41:24;12.23;;;9.82;;
22064;SDS011;11197;53.110;8.468;2023-05-07T06:43:51;11.85;;;9.20;;
22064;SDS011;11197;53.110;8.468;2023-05-07T06:46:31;11.93;;;9.13;;
22064;SDS011;11197;53.110;8.468;2023-05-07T06:48:57;12.52;;;9.35;;
22064;SDS011;11197;53.110;8.468;2023-05-07T06:51:23;10.90;;;8.75;;
22064;SDS011;11197;53.110;8.468;2023-05-07T06:53:49;12.23;;;8.95;;
22064;SDS011;11197;53.110;8.468;2023-05-07T06:56:15;11.80;;;9.48;;
22064;SDS011;11197;53.110;8.468;2023-05-07T06:58:42;11.50;;;9.40;;
22064;SDS011;11197;53.110;8.468;2023-05-07T07:01:09;10.95;;;9.30;;
22064;SDS011;11197;53.110;8.468;2023-05-07T07:03:36;11.90;;;9.57;;
22064;SDS011;11197;53.110;8.468;2023-05-07T07:06:02;11.88;;;9.38;;
22064;SDS011;11197;53.110;8.468;2023-05-07T07:08:29;11.27;;;9.07;;
22064;SDS011;11197;53.110;8.468;2023-05-07T07:10:55;11.63;;;9.30;;
22064;SDS011;11197;53.110;8.468;2023-05-07T07:13:21;10.73;;;8.25;;
22064;SDS011;11197;53.110;8.468;2023-05-07T07:15:47;11.18;;;8.65;;
22064;SDS011;11197;53.110;8.468;2023-05-07T07:18:13;11.50;;;8.30;;
22064;SDS011;11197;53.110;8.468;2023-05-07T07:20:40;11.70;;;8.80;;
22064;SDS011;11197;53.110;8.468;2023-05-07T07:23:07;11.43;;;8.63;;
22064;SDS011;11197;53.110;8.468;2023-05-07T07:25:36;11.32;;;9.00;;
22064;SDS011;11197;53.110;8.468;2023-05-07T07:28:02;11.00;;;8.77;;
22064;SDS011;11197;53.110;8.468;2023-05-07T07:30:28;10.55;;;8.77;;
22064;SDS011;11197;53.110;8.468;2023-05-07T07:32:55;12.45;;;8.85;;
22064;SDS011;11197;53.110;8.468;2023-05-07T07:35:27;13.10;;;9.63;;
22064;SDS011;11197;53.110;8.468;2023-05-07T07:37:56;11.73;;;9.05;;
22064;SDS011;11197;53.110;8.468;2023-05-07T07:40:23;10.98;;;9.02;;
22064;SDS011;11197;53.110;8.468;2023-05-07T07:42:49;10.82;;;9.13;;
22064;SDS011;11197;53.110;8.468;2023-05-07T07:45:15;10.93;;;9.25;;
22064;SDS011;11197;53.110;8.468;2023-05-07T07:47:44;11.25;;;8.95;;
22064;SDS011;11197;53.110;8.468;2023-05-07T07:50:10;10.98;;;9.30;;
22064;SDS011;11197;53.110;8.468;2023-05-07T07:52:37;12.27;;;9.88;;
22064;SDS011;11197;53.110;8.468;2023-05-07T07:55:03;11.48;;;9.32;;
22064;SDS011;11197;53.110;8.468;2023-05-07T07:57:30;12.23;;;9.45;;
22064;SDS011;11197;53.110;8.468;2023-05-07T07:59:56;11.68;;;8.77;;
22064;SDS011;11197;53.110;8.468;2023-05-07T08:02:22;10.50;;;9.05;;
22064;SDS011;11197;53.110;8.468;2023-05-07T08:04:49;10.43;;;8.48;;
22064;SDS011;11197;53.110;8.468;2023-05-07T08:07:16;10.75;;;9.10;;
22064;SDS011;11197;53.110;8.468;2023-05-07T08:09:46;10.32;;;8.98;;
22064;SDS011;11197;53.110;8.468;2023-05-07T08:12:13;10.52;;;8.60;;
22064;SDS011;11197;53.110;8.468;2023-05-07T08:14:40;11.30;;;9.48;;
22064;SDS011;11197;53.110;8.468;2023-05-07T08:17:07;10.75;;;9.00;;
22064;SDS011;11197;53.110;8.468;2023-05-07T08:19:35;11.43;;;10.00;;
22064;SDS011;11197;53.110;8.468;2023-05-07T08:22:02;10.90;;;9.27;;
22064;SDS011;11197;53.110;8.468;2023-05-07T08:24:29;11.50;;;9.70;;
22064;SDS011;11197;53.110;8.468;2023-05-07T08:26:55;10.80;;;9.30;;
22064;SDS011;11197;53.110;8.468;2023-05-07T08:29:21;11.07;;;9.65;;
22064;SDS011;11197;53.110;8.468;2023-05-07T08:31:47;11.63;;;9.68;;
22064;SDS011;11197;53.110;8.468;2023-05-07T08:34:13;13.05;;;9.40;;
22064;SDS011;11197;53.110;8.468;2023-05-07T08:36:42;11.15;;;9.60;;
22064;SDS011;11197;53.110;8.468;2023-05-07T08:39:09;11.50;;;9.02;;
22064;SDS011;11197;53.110;8.468;2023-05-07T08:41:35;11.05;;;9.25;;
22064;SDS011;11197;53.110;8.468;2023-05-07T08:44:02;10.90;;;9.50;;
22064;SDS011;11197;53.110;8.468;2023-05-07T08:46:31;11.07;;;9.32;;
22064;SDS011;11197;53.110;8.468;2023-05-07T08:48:58;10.63;;;9.18;;
22064;SDS011;11197;53.110;8.468;2023-05-07T08:51:24;11.60;;;9.57;;
22064;SDS011;11197;53.110;8.468;2023-05-07T08:53:51;10.30;;;9.10;;
22064;SDS011;11197;53.110;8.468;2023-05-07T08:56:23;10.27;;;9.13;;
22064;SDS011;11197;53.110;8.468;2023-05-07T08:58:51;10.38;;;8.85;;
22064;SDS011;11197;53.110;8.468;2023-05-07T09:01:22;6.18;;;4.78;;
22064;SDS011;11197;53.110;8.468;2023-05-07T09:03:50;11.20;;;8.52;;
22064;SDS011;11197;53.110;8.468;2023-05-07T09:06:18;11.10;;;8.45;;
22064;SDS011;11197;53.110;8.468;2023-05-07T09:08:51;9.80;;;8.30;;
22064;SDS011;11197;53.110;8.468;2023-05-07T09:11:20;10.52;;;8.73;;
22064;SDS011;11197;53.110;8.468;2023-05-07T09:13:48;9.73;;;8.63;;
22064;SDS011;11197;53.110;8.468;2023-05-07T09:16:22;9.50;;;8.05;;
22064;SDS011;11197;53.110;8.468;2023-05-07T09:18:52;9.45;;;8.02;;
22064;SDS011;11197;53.110;8.468;2023-05-07T09:21:21;9.07;;;8.13;;
22064;SDS011;11197;53.110;8.468;2023-05-07T09:23:50;10.13;;;7.78;;
22064;SDS011;11197;53.110;8.468;2023-05-07T09:26:18;9.10;;;8.18;;
22064;SDS011;11197;53.110;8.468;2023-05-07T09:28:47;9.90;;;8.13;;
22064;SDS011;11197;53.110;8.468;2023-05-07T09:31:14;9.95;;;7.57;;
22064;SDS011;11197;53.110;8.468;2023-05-07T09:33:40;8.65;;;7.75;;
22064;SDS011;11197;53.110;8.468;2023-05-07T09:36:09;9.77;;;8.10;;
22064;SDS011;11197;53.110;8.468;2023-05-07T09:38:37;11.63;;;8.00;;
22064;SDS011;11197;53.110;8.468;2023-05-07T09:41:05;9.63;;;8.32;;
22064;SDS011;11197;53.110;8.468;2023-05-07T09:43:38;9.60;;;8.13;;
22064;SDS011;11197;53.110;8.468;2023-05-07T09:46:16;9.48;;;8.35;;
22064;SDS011;11197;53.110;8.468;2023-05-07T09:48:50;9.43;;;8.00;;
22064;SDS011;11197;53.110;8.468;2023-05-07T09:51:25;9.98;;;8.55;;
22064;SDS011;11197;53.110;8.468;2023-05-07T09:53:57;9.32;;;8.23;;
22064;SDS011;11197;53.110;8.468;2023-05-07T09:56:29;10.73;;;8.43;;
22064;SDS011;11197;53.110;8.468;2023-05-07T09:58:57;10.18;;;8.20;;
22064;SDS011;11197;53.110;8.468;2023-05-07T10:01:27;9.82;;;8.32;;
22064;SDS011;11197;53.110;8.468;2023-05-07T10:03:54;11.77;;;8.48;;
22064;SDS011;11197;53.110;8.468;2023-05-07T10:06:21;10.45;;;8.52;;
22064;SDS011;11197;53.110;8.468;2023-05-07T10:08:47;10.27;;;8.30;;
22064;SDS011;11197;53.110;8.468;2023-05-07T10:11:14;9.70;;;8.30;;
22064;SDS011;11197;53.110;8.468;2023-05-07T10:13:42;10.20;;;8.27;;
22064;SDS011;11197;53.110;8.468;2023-05-07T10:16:09;9.80;;;8.18;;
22064;SDS011;11197;53.110;8.468;2023-05-07T10:18:41;11.13;;;9.07;;
22064;SDS011;11197;53.110;8.468;2023-05-07T10:23:45;10.00;;;8.38;;
22064;SDS011;11197;53.110;8.468;2023-05-07T10:26:14;10.70;;;8.75;;
22064;SDS011;11197;53.110;8.468;2023-05-07T10:28:44;10.65;;;9.10;;
22064;SDS011;11197;53.110;8.468;2023-05-07T10:33:57;10.32;;;8.48;;
22064;SDS011;11197;53.110;8.468;2023-05-07T10:36:25;12.05;;;8.93;;
22064;SDS011;11197;53.110;8.468;2023-05-07T10:38:52;10.35;;;8.80;;
22064;SDS011;11197;53.110;8.468;2023-05-07T10:41:19;10.65;;;9.32;;
22064;SDS011;11197;53.110;8.468;2023-05-07T10:43:46;10.82;;;8.85;;
22064;SDS011;11197;53.110;8.468;2023-05-07T10:46:24;10.23;;;8.77;;
22064;SDS011;11197;53.110;8.468;2023-05-07T10:49:06;10.18;;;9.07;;
22064;SDS011;11197;53.110;8.468;2023-05-07T10:51:40;10.93;;;9.20;;
22064;SDS011;11197;53.110;8.468;2023-05-07T10:56:52;10.63;;;9.05;;
22064;SDS011;11197;53.110;8.468;2023-05-07T10:59:30;11.45;;;9.70;;
22064;SDS011;11197;53.110;8.468;2023-05-07T11:02:03;11.68;;;9.82;;
22064;SDS011;11197;53.110;8.468;2023-05-07T11:04:39;10.85;;;9.15;;
22064;SDS011;11197;53.110;8.468;2023-05-07T11:07:28;10.57;;;9.40;;
22064;SDS011;11197;53.110;8.468;2023-05-07T11:10:00;10.90;;;9.48;;
22064;SDS011;11197;53.110;8.468;2023-05-07T11:12:48;10.30;;;9.07;;
22064;SDS011;11197;53.110;8.468;2023-05-07T11:15:35;10.60;;;9.25;;
22064;SDS011;11197;53.110;8.468;2023-05-07T11:18:17;11.13;;;9.38;;
22064;SDS011;11197;53.110;8.468;2023-05-07T11:20:49;11.73;;;9.30;;
22064;SDS011;11197;53.110;8.468;2023-05-07T11:26:27;11.23;;;9.23;;
22064;SDS011;11197;53.110;8.468;2023-05-07T11:28:54;10.85;;;9.45;;
22064;SDS011;11197;53.110;8.468;2023-05-07T11:31:24;12.45;;;10.20;;
22064;SDS011;11197;53.110;8.468;2023-05-07T11:33:53;11.27;;;9.40;;
22064;SDS011;11197;53.110;8.468;2023-05-07T11:36:22;10.48;;;9.13;;
22064;SDS011;11197;53.110;8.468;2023-05-07T11:38:51;10.93;;;9.45;;
22064;SDS011;11197;53.110;8.468;2023-05-07T11:41:17;10.63;;;9.45;;
22064;SDS011;11197;53.110;8.468;2023-05-07T11:44:03;9.43;;;7.05;;
22064;SDS011;11197;53.110;8.468;2023-05-07T11:46:29;9.85;;;7.78;;
22064;SDS011;11197;53.110;8.468;2023-05-07T11:48:55;12.50;;;8.27;;
22064;SDS011;11197;53.110;8.468;2023-05-07T11:51:22;10.15;;;6.93;;
22064;SDS011;11197;53.110;8.468;2023-05-07T11:53:51;10.00;;;6.95;;
22064;SDS011;11197;53.110;8.468;2023-05-07T11:56:18;9.93;;;8.30;;
22064;SDS011;11197;53.110;8.468;2023-05-07T11:58:44;11.57;;;9.55;;
22064;SDS011;11197;53.110;8.468;2023-05-07T12:01:13;12.18;;;6.47;;
22064;SDS011;11197;53.110;8.468;2023-05-07T12:03:41;9.50;;;7.13;;
22064;SDS011;11197;53.110;8.468;2023-05-07T12:06:09;11.40;;;7.65;;
22064;SDS011;11197;53.110;8.468;2023-05-07T12:08:36;9.55;;;7.95;;
22064;SDS011;11197;53.110;8.468;2023-05-07T12:11:03;9.95;;;7.47;;
22064;SDS011;11197;53.110;8.468;2023-05-07T12:13:31;10.05;;;9.05;;
22064;SDS011;11197;53.110;8.468;2023-05-07T12:15:58;11.10;;;8.50;;
22064;SDS011;11197;53.110;8.468;2023-05-07T12:18:24;10.27;;;8.65;;
22064;SDS011;11197;53.110;8.468;2023-05-07T12:20:50;10.15;;;9.15;;
22064;SDS011;11197;53.110;8.468;2023-05-07T12:23:16;12.52;;;9.43;;
22064;SDS011;11197;53.110;8.468;2023-05-07T12:25:43;11.88;;;9.15;;
22064;SDS011;11197;53.110;8.468;2023-05-07T12:28:13;9.93;;;8.80;;
22064;SDS011;11197;53.110;8.468;2023-05-07T12:30:43;11.02;;;8.90;;
22064;SDS011;11197;53.110;8.468;2023-05-07T12:33:10;10.25;;;8.93;;
22064;SDS011;11197;53.110;8.468;2023-05-07T12:35:39;16.00;;;8.68;;
22064;SDS011;11197;53.110;8.468;2023-05-07T12:38:09;10.38;;;9.13;;
22064;SDS011;11197;53.110;8.468;2023-05-07T12:40:38;11.93;;;8.88;;
22064;SDS011;11197;53.110;8.468;2023-05-07T12:43:25;10.30;;;8.70;;
22064;SDS011;11197;53.110;8.468;2023-05-07T12:46:03;11.55;;;8.23;;
22064;SDS011;11197;53.110;8.468;2023-05-07T12:48:30;11.27;;;8.52;;
22064;SDS011;11197;53.110;8.468;2023-05-07T12:51:00;9.75;;;8.35;;
22064;SDS011;11197;53.110;8.468;2023-05-07T12:53:27;10.07;;;8.10;;
22064;SDS011;11197;53.110;8.468;2023-05-07T12:55:54;10.82;;;8.23;;
22064;SDS011;11197;53.110;8.468;2023-05-07T13:03:22;9.20;;;7.43;;
22064;SDS011;11197;53.110;8.468;2023-05-07T13:05:59;7.95;;;7.13;;
22064;SDS011;11197;53.110;8.468;2023-05-07T13:08:27;8.88;;;7.28;;
22064;SDS011;11197;53.110;8.468;2023-05-07T13:10:53;8.05;;;7.03;;
22064;SDS011;11197;53.110;8.468;2023-05-07T13:13:20;8.23;;;7.38;;
22064;SDS011;11197;53.110;8.468;2023-05-07T13:15:46;8.95;;;7.78;;
22064;SDS011;11197;53.110;8.468;2023-05-07T13:18:13;7.93;;;7.13;;
22064;SDS011;11197;53.110;8.468;2023-05-07T13:20:39;12.52;;;7.38;;
22064;SDS011;11197;53.110;8.468;2023-05-07T13:23:05;8.48;;;6.68;;
22064;SDS011;11197;53.110;8.468;2023-05-07T13:25:31;8.25;;;6.57;;
22064;SDS011;11197;53.110;8.468;2023-05-07T13:27:57;8.30;;;6.95;;
22064;SDS011;11197;53.110;8.468;2023-05-07T13:30:23;7.70;;;6.90;;
22064;SDS011;11197;53.110;8.468;2023-05-07T13:32:49;9.23;;;7.40;;
22064;SDS011;11197;53.110;8.468;2023-05-07T13:35:15;9.10;;;7.55;;
22064;SDS011;11197;53.110;8.468;2023-05-07T13:37:41;10.88;;;7.15;;
22064;SDS011;11197;53.110;8.468;2023-05-07T13:40:07;6.97;;;6.28;;
22064;SDS011;11197;53.110;8.468;2023-05-07T13:42:33;6.90;;;6.20;;
22064;SDS011;11197;53.110;8.468;2023-05-07T13:44:59;9.40;;;6.68;;
22064;SDS011;11197;53.110;8.468;2023-05-07T13:47:25;7.20;;;6.18;;
22064;SDS011;11197;53.110;8.468;2023-05-07T13:49:51;7.28;;;6.57;;
22064;SDS011;11197;53.110;8.468;2023-05-07T13:52:17;7.90;;;6.43;;
22064;SDS011;11197;53.110;8.468;2023-05-07T13:54:44;7.38;;;6.38;;
22064;SDS011;11197;53.110;8.468;2023-05-07T13:57:10;8.35;;;6.32;;
22064;SDS011;11197;53.110;8.468;2023-05-07T13:59:35;7.30;;;6.38;;
22064;SDS011;11197;53.110;8.468;2023-05-07T14:02:01;7.18;;;6.43;;
22064;SDS011;11197;53.110;8.468;2023-05-07T14:04:27;7.13;;;5.70;;
22064;SDS011;11197;53.110;8.468;2023-05-07T14:06:53;6.40;;;5.70;;
22064;SDS011;11197;53.110;8.468;2023-05-07T14:09:18;6.50;;;5.80;;
22064;SDS011;11197;53.110;8.468;2023-05-07T14:11:44;6.90;;;5.63;;
22064;SDS011;11197;53.110;8.468;2023-05-07T14:14:12;6.50;;;5.70;;
22064;SDS011;11197;53.110;8.468;2023-05-07T14:16:38;8.55;;;5.45;;
22064;SDS011;11197;53.110;8.468;2023-05-07T14:19:04;6.55;;;5.40;;
22064;SDS011;11197;53.110;8.468;2023-05-07T14:21:30;6.32;;;5.55;;
22064;SDS011;11197;53.110;8.468;2023-05-07T14:23:56;5.85;;;5.25;;
22064;SDS011;11197;53.110;8.468;2023-05-07T14:26:22;6.63;;;5.30;;
22064;SDS011;11197;53.110;8.468;2023-05-07T14:28:48;5.90;;;5.20;;
22064;SDS011;11197;53.110;8.468;2023-05-07T14:31:14;7.90;;;5.93;;
22064;SDS011;11197;53.110;8.468;2023-05-07T14:33:40;6.18;;;5.55;;
22064;SDS011;11197;53.110;8.468;2023-05-07T14:36:06;6.45;;;5.32;;
22064;SDS011;11197;53.110;8.468;2023-05-07T14:38:32;6.97;;;5.60;;
22064;SDS011;11197;53.110;8.468;2023-05-07T14:40:58;7.00;;;5.97;;
22064;SDS011;11197;53.110;8.468;2023-05-07T14:43:24;6.60;;;5.78;;
22064;SDS011;11197;53.110;8.468;2023-05-07T14:45:49;6.97;;;5.78;;
22064;SDS011;11197;53.110;8.468;2023-05-07T14:48:15;6.00;;;5.28;;
22064;SDS011;11197;53.110;8.468;2023-05-07T14:50:42;6.80;;;5.72;;